Joetsu, Japan
Current Conditions -  °F | °C
As of 5:00 PM on Monday 24 Nov 2014 (Local Time) from RJNT Reporting Station
Broken Clouds Broken Clouds  
Wind Chill: 55°   Ceiling: 7000
Heat Index: 55°   Visibility: 6mi
Dew Point: 46°   Wind: 0mph
Humidity: 72%   Direction: NA
Pressure: 30.06"   Gusts: NA
Location:  37.12°N, 138.25°E
Report Text: RJNT 240800Z 00000KT 9999 FEW060 BKN070 13/08 Q1018
Loading
Personal Weather Stations






























Interactive Weather Map New forecast layout! Learn more

10-Day Weather Forecast

Advertisements
Track Severe Weather on mobile